sensor_id;sensor_type;location;lat;lon;timestamp;temperature;humidity
46816;DHT22;32787;53.316;8.670;2023-08-08T00:01:43;13.10;86.60
46816;DHT22;32787;53.316;8.670;2023-08-08T00:04:10;13.10;86.90
46816;DHT22;32787;53.316;8.670;2023-08-08T00:06:36;13.10;86.90
46816;DHT22;32787;53.316;8.670;2023-08-08T00:09:02;13.00;87.20
46816;DHT22;32787;53.316;8.670;2023-08-08T00:11:29;13.00;87.30
46816;DHT22;32787;53.316;8.670;2023-08-08T00:13:56;13.10;87.10
46816;DHT22;32787;53.316;8.670;2023-08-08T00:16:22;13.10;87.50
46816;DHT22;32787;53.316;8.670;2023-08-08T00:18:48;13.10;87.60
46816;DHT22;32787;53.316;8.670;2023-08-08T00:21:16;13.10;87.60
46816;DHT22;32787;53.316;8.670;2023-08-08T00:23:42;13.00;87.50
46816;DHT22;32787;53.316;8.670;2023-08-08T00:26:07;13.00;87.90
46816;DHT22;32787;53.316;8.670;2023-08-08T00:28:33;12.90;88.00
46816;DHT22;32787;53.316;8.670;2023-08-08T00:30:58;13.10;88.20
46816;DHT22;32787;53.316;8.670;2023-08-08T00:33:24;13.00;88.10
46816;DHT22;32787;53.316;8.670;2023-08-08T00:35:49;13.10;87.90
46816;DHT22;32787;53.316;8.670;2023-08-08T00:38:15;13.20;88.00
46816;DHT22;32787;53.316;8.670;2023-08-08T00:40:42;13.10;88.10
46816;DHT22;32787;53.316;8.670;2023-08-08T00:43:07;12.90;88.40
46816;DHT22;32787;53.316;8.670;2023-08-08T00:45:34;12.90;88.50
46816;DHT22;32787;53.316;8.670;2023-08-08T00:48:00;13.00;88.50
46816;DHT22;32787;53.316;8.670;2023-08-08T00:50:25;12.90;88.70
46816;DHT22;32787;53.316;8.670;2023-08-08T00:52:52;12.90;89.00
46816;DHT22;32787;53.316;8.670;2023-08-08T00:55:18;12.90;88.90
46816;DHT22;32787;53.316;8.670;2023-08-08T00:57:45;13.00;88.70
46816;DHT22;32787;53.316;8.670;2023-08-08T01:00:11;12.80;89.00
46816;DHT22;32787;53.316;8.670;2023-08-08T01:02:37;12.90;88.90
46816;DHT22;32787;53.316;8.670;2023-08-08T01:05:04;12.90;89.00
46816;DHT22;32787;53.316;8.670;2023-08-08T01:07:53;12.90;88.70
46816;DHT22;32787;53.316;8.670;2023-08-08T01:10:29;12.90;88.90
46816;DHT22;32787;53.316;8.670;2023-08-08T01:13:04;12.80;89.20
46816;DHT22;32787;53.316;8.670;2023-08-08T01:15:32;12.90;88.70
46816;DHT22;32787;53.316;8.670;2023-08-08T01:18:03;12.90;89.20
46816;DHT22;32787;53.316;8.670;2023-08-08T01:20:30;12.90;89.20
46816;DHT22;32787;53.316;8.670;2023-08-08T01:23:13;12.90;89.40
46816;DHT22;32787;53.316;8.670;2023-08-08T01:25:40;13.10;89.30
46816;DHT22;32787;53.316;8.670;2023-08-08T01:28:06;13.10;89.00
46816;DHT22;32787;53.316;8.670;2023-08-08T01:30:33;13.10;89.00
46816;DHT22;32787;53.316;8.670;2023-08-08T01:32:58;13.20;89.00
46816;DHT22;32787;53.316;8.670;2023-08-08T01:35:29;13.30;88.90
46816;DHT22;32787;53.316;8.670;2023-08-08T01:38:04;13.30;88.70
46816;DHT22;32787;53.316;8.670;2023-08-08T01:40:35;13.40;88.50
46816;DHT22;32787;53.316;8.670;2023-08-08T01:43:01;13.40;88.50
46816;DHT22;32787;53.316;8.670;2023-08-08T01:45:29;13.40;88.50
46816;DHT22;32787;53.316;8.670;2023-08-08T01:47:55;13.40;88.50
46816;DHT22;32787;53.316;8.670;2023-08-08T01:50:20;13.40;88.10
46816;DHT22;32787;53.316;8.670;2023-08-08T01:52:47;13.40;87.90
46816;DHT22;32787;53.316;8.670;2023-08-08T01:55:12;13.30;87.70
46816;DHT22;32787;53.316;8.670;2023-08-08T01:57:38;13.30;87.60
46816;DHT22;32787;53.316;8.670;2023-08-08T02:00:05;13.30;87.60
46816;DHT22;32787;53.316;8.670;2023-08-08T02:02:31;13.30;87.70
46816;DHT22;32787;53.316;8.670;2023-08-08T02:04:57;13.40;87.60
46816;DHT22;32787;53.316;8.670;2023-08-08T02:07:23;13.40;88.00
46816;DHT22;32787;53.316;8.670;2023-08-08T02:09:49;13.40;88.10
46816;DHT22;32787;53.316;8.670;2023-08-08T02:12:16;13.40;88.30
46816;DHT22;32787;53.316;8.670;2023-08-08T02:14:42;13.50;88.40
46816;DHT22;32787;53.316;8.670;2023-08-08T02:17:07;13.40;88.70
46816;DHT22;32787;53.316;8.670;2023-08-08T02:19:33;13.40;88.90
46816;DHT22;32787;53.316;8.670;2023-08-08T02:21:58;13.40;89.20
46816;DHT22;32787;53.316;8.670;2023-08-08T02:24:24;13.40;89.70
46816;DHT22;32787;53.316;8.670;2023-08-08T02:26:50;13.30;89.90
46816;DHT22;32787;53.316;8.670;2023-08-08T02:29:15;13.30;90.00
46816;DHT22;32787;53.316;8.670;2023-08-08T02:31:41;13.40;89.90
46816;DHT22;32787;53.316;8.670;2023-08-08T02:34:06;13.40;90.00
46816;DHT22;32787;53.316;8.670;2023-08-08T02:36:32;13.40;89.60
46816;DHT22;32787;53.316;8.670;2023-08-08T02:38:58;13.40;89.80
46816;DHT22;32787;53.316;8.670;2023-08-08T02:41:24;13.30;89.60
46816;DHT22;32787;53.316;8.670;2023-08-08T02:43:50;13.30;89.80
46816;DHT22;32787;53.316;8.670;2023-08-08T02:46:15;13.40;89.20
46816;DHT22;32787;53.316;8.670;2023-08-08T02:48:41;13.50;88.90
46816;DHT22;32787;53.316;8.670;2023-08-08T02:51:07;13.40;89.20
46816;DHT22;32787;53.316;8.670;2023-08-08T02:53:32;13.60;88.90
46816;DHT22;32787;53.316;8.670;2023-08-08T02:55:58;13.50;89.00
46816;DHT22;32787;53.316;8.670;2023-08-08T02:58:23;13.40;89.70
46816;DHT22;32787;53.316;8.670;2023-08-08T03:00:49;13.40;89.70
46816;DHT22;32787;53.316;8.670;2023-08-08T03:03:14;13.40;89.90
46816;DHT22;32787;53.316;8.670;2023-08-08T03:05:40;13.50;89.90
46816;DHT22;32787;53.316;8.670;2023-08-08T03:08:06;13.50;89.80
46816;DHT22;32787;53.316;8.670;2023-08-08T03:10:32;13.50;89.80
46816;DHT22;32787;53.316;8.670;2023-08-08T03:12:57;13.50;89.70
46816;DHT22;32787;53.316;8.670;2023-08-08T03:15:23;13.50;89.90
46816;DHT22;32787;53.316;8.670;2023-08-08T03:17:49;13.50;90.00
46816;DHT22;32787;53.316;8.670;2023-08-08T03:20:14;13.30;90.50
46816;DHT22;32787;53.316;8.670;2023-08-08T03:22:40;13.30;90.30
46816;DHT22;32787;53.316;8.670;2023-08-08T03:25:06;13.30;90.80
46816;DHT22;32787;53.316;8.670;2023-08-08T03:27:32;13.30;90.60
46816;DHT22;32787;53.316;8.670;2023-08-08T03:29:58;13.30;90.80
46816;DHT22;32787;53.316;8.670;2023-08-08T03:32:23;13.40;90.70
46816;DHT22;32787;53.316;8.670;2023-08-08T03:34:49;13.20;90.90
46816;DHT22;32787;53.316;8.670;2023-08-08T03:37:15;13.20;91.00
46816;DHT22;32787;53.316;8.670;2023-08-08T03:39:40;13.10;91.00
46816;DHT22;32787;53.316;8.670;2023-08-08T03:42:06;13.10;91.30
46816;DHT22;32787;53.316;8.670;2023-08-08T03:44:32;13.20;91.10
46816;DHT22;32787;53.316;8.670;2023-08-08T03:46:57;13.00;91.40
46816;DHT22;32787;53.316;8.670;2023-08-08T03:49:23;12.90;91.80
46816;DHT22;32787;53.316;8.670;2023-08-08T03:51:49;12.90;91.90
46816;DHT22;32787;53.316;8.670;2023-08-08T03:54:15;12.90;92.00
46816;DHT22;32787;53.316;8.670;2023-08-08T03:56:40;12.90;91.70
46816;DHT22;32787;53.316;8.670;2023-08-08T03:59:06;13.00;91.90
46816;DHT22;32787;53.316;8.670;2023-08-08T04:01:32;13.10;91.90
46816;DHT22;32787;53.316;8.670;2023-08-08T04:03:58;13.10;91.90
46816;DHT22;32787;53.316;8.670;2023-08-08T04:06:23;13.10;92.10
46816;DHT22;32787;53.316;8.670;2023-08-08T04:08:49;13.00;91.70
46816;DHT22;32787;53.316;8.670;2023-08-08T04:11:15;13.00;92.00
46816;DHT22;32787;53.316;8.670;2023-08-08T04:13:40;13.10;92.00
46816;DHT22;32787;53.316;8.670;2023-08-08T04:16:06;12.90;91.90
46816;DHT22;32787;53.316;8.670;2023-08-08T04:18:32;13.00;91.80
46816;DHT22;32787;53.316;8.670;2023-08-08T04:20:57;13.00;92.10
46816;DHT22;32787;53.316;8.670;2023-08-08T04:23:23;13.00;92.30
46816;DHT22;32787;53.316;8.670;2023-08-08T04:25:51;13.10;92.10
46816;DHT22;32787;53.316;8.670;2023-08-08T04:28:17;13.20;92.10
46816;DHT22;32787;53.316;8.670;2023-08-08T04:30:42;13.20;92.30
46816;DHT22;32787;53.316;8.670;2023-08-08T04:33:08;13.30;92.10
46816;DHT22;32787;53.316;8.670;2023-08-08T04:35:34;13.20;92.30
46816;DHT22;32787;53.316;8.670;2023-08-08T04:37:59;13.30;92.00
46816;DHT22;32787;53.316;8.670;2023-08-08T04:40:25;13.30;92.00
46816;DHT22;32787;53.316;8.670;2023-08-08T04:42:51;13.30;91.90
46816;DHT22;32787;53.316;8.670;2023-08-08T04:45:17;13.30;92.00
46816;DHT22;32787;53.316;8.670;2023-08-08T04:47:42;13.30;92.10
46816;DHT22;32787;53.316;8.670;2023-08-08T04:50:09;13.30;92.10
46816;DHT22;32787;53.316;8.670;2023-08-08T04:52:35;13.30;92.10
46816;DHT22;32787;53.316;8.670;2023-08-08T04:55:00;13.30;92.00
46816;DHT22;32787;53.316;8.670;2023-08-08T04:57:26;13.20;91.80
46816;DHT22;32787;53.316;8.670;2023-08-08T04:59:51;13.20;91.50
46816;DHT22;32787;53.316;8.670;2023-08-08T05:02:18;13.10;91.30
46816;DHT22;32787;53.316;8.670;2023-08-08T05:04:43;13.10;91.10
46816;DHT22;32787;53.316;8.670;2023-08-08T05:07:09;13.10;91.20
46816;DHT22;32787;53.316;8.670;2023-08-08T05:09:34;13.30;91.00
46816;DHT22;32787;53.316;8.670;2023-08-08T05:12:00;13.30;90.90
46816;DHT22;32787;53.316;8.670;2023-08-08T05:14:26;13.40;90.90
46816;DHT22;32787;53.316;8.670;2023-08-08T05:16:52;13.40;91.10
46816;DHT22;32787;53.316;8.670;2023-08-08T05:19:17;13.40;91.20
46816;DHT22;32787;53.316;8.670;2023-08-08T05:21:43;13.50;91.00
46816;DHT22;32787;53.316;8.670;2023-08-08T05:24:09;13.50;90.80
46816;DHT22;32787;53.316;8.670;2023-08-08T05:26:34;13.40;91.10
46816;DHT22;32787;53.316;8.670;2023-08-08T05:29:00;13.50;91.00
46816;DHT22;32787;53.316;8.670;2023-08-08T05:31:25;13.40;90.90
46816;DHT22;32787;53.316;8.670;2023-08-08T05:33:51;13.40;91.30
46816;DHT22;32787;53.316;8.670;2023-08-08T05:36:16;13.40;91.20
46816;DHT22;32787;53.316;8.670;2023-08-08T05:38:42;13.40;91.40
46816;DHT22;32787;53.316;8.670;2023-08-08T05:41:08;13.60;91.50
46816;DHT22;32787;53.316;8.670;2023-08-08T05:43:34;13.70;91.10
46816;DHT22;32787;53.316;8.670;2023-08-08T05:45:59;13.90;91.10
46816;DHT22;32787;53.316;8.670;2023-08-08T05:48:25;13.90;91.00
46816;DHT22;32787;53.316;8.670;2023-08-08T05:50:51;13.90;90.70
46816;DHT22;32787;53.316;8.670;2023-08-08T05:53:16;14.00;91.30
46816;DHT22;32787;53.316;8.670;2023-08-08T05:55:42;13.90;90.90
46816;DHT22;32787;53.316;8.670;2023-08-08T05:58:08;13.80;91.20
46816;DHT22;32787;53.316;8.670;2023-08-08T06:00:34;13.80;91.20
46816;DHT22;32787;53.316;8.670;2023-08-08T06:03:00;14.00;91.40
46816;DHT22;32787;53.316;8.670;2023-08-08T06:05:26;14.10;90.90
46816;DHT22;32787;53.316;8.670;2023-08-08T06:07:51;14.10;91.00
46816;DHT22;32787;53.316;8.670;2023-08-08T06:10:17;14.20;91.20
46816;DHT22;32787;53.316;8.670;2023-08-08T06:12:43;14.20;91.00
46816;DHT22;32787;53.316;8.670;2023-08-08T06:15:08;14.10;90.80
46816;DHT22;32787;53.316;8.670;2023-08-08T06:17:34;14.30;90.90
46816;DHT22;32787;53.316;8.670;2023-08-08T06:20:00;14.30;90.60
46816;DHT22;32787;53.316;8.670;2023-08-08T06:22:25;14.30;90.60
46816;DHT22;32787;53.316;8.670;2023-08-08T06:24:51;14.50;90.70
46816;DHT22;32787;53.316;8.670;2023-08-08T06:27:17;14.50;90.40
46816;DHT22;32787;53.316;8.670;2023-08-08T06:29:43;14.40;90.60
46816;DHT22;32787;53.316;8.670;2023-08-08T06:32:09;14.30;90.20
46816;DHT22;32787;53.316;8.670;2023-08-08T06:34:34;14.20;90.60
46816;DHT22;32787;53.316;8.670;2023-08-08T06:37:00;14.30;90.70
46816;DHT22;32787;53.316;8.670;2023-08-08T06:39:25;14.20;90.40
46816;DHT22;32787;53.316;8.670;2023-08-08T06:41:51;14.10;90.60
46816;DHT22;32787;53.316;8.670;2023-08-08T06:44:17;14.20;90.80
46816;DHT22;32787;53.316;8.670;2023-08-08T06:46:42;14.40;90.30
46816;DHT22;32787;53.316;8.670;2023-08-08T06:49:08;14.50;89.80
46816;DHT22;32787;53.316;8.670;2023-08-08T06:51:34;14.60;89.50
46816;DHT22;32787;53.316;8.670;2023-08-08T06:54:00;14.80;89.20
46816;DHT22;32787;53.316;8.670;2023-08-08T06:56:26;14.90;89.20
46816;DHT22;32787;53.316;8.670;2023-08-08T06:58:52;15.10;89.10
46816;DHT22;32787;53.316;8.670;2023-08-08T07:01:18;15.30;87.80
46816;DHT22;32787;53.316;8.670;2023-08-08T07:03:43;15.50;88.20
46816;DHT22;32787;53.316;8.670;2023-08-08T07:06:10;15.50;87.50
46816;DHT22;32787;53.316;8.670;2023-08-08T07:08:36;15.40;87.50
46816;DHT22;32787;53.316;8.670;2023-08-08T07:11:05;15.40;87.70
46816;DHT22;32787;53.316;8.670;2023-08-08T07:13:34;15.10;87.70
46816;DHT22;32787;53.316;8.670;2023-08-08T07:16:00;14.60;89.30
46816;DHT22;32787;53.316;8.670;2023-08-08T07:18:26;14.30;90.00
46816;DHT22;32787;53.316;8.670;2023-08-08T07:20:51;14.00;91.00
46816;DHT22;32787;53.316;8.670;2023-08-08T07:23:18;13.80;91.50
46816;DHT22;32787;53.316;8.670;2023-08-08T07:25:45;13.90;92.00
46816;DHT22;32787;53.316;8.670;2023-08-08T07:28:12;13.80;91.80
46816;DHT22;32787;53.316;8.670;2023-08-08T07:30:37;13.80;92.30
46816;DHT22;32787;53.316;8.670;2023-08-08T07:33:03;13.80;92.50
46816;DHT22;32787;53.316;8.670;2023-08-08T07:35:29;13.80;92.40
46816;DHT22;32787;53.316;8.670;2023-08-08T07:37:54;13.80;92.40
46816;DHT22;32787;53.316;8.670;2023-08-08T07:40:20;13.50;92.20
46816;DHT22;32787;53.316;8.670;2023-08-08T07:42:47;13.70;92.60
46816;DHT22;32787;53.316;8.670;2023-08-08T07:45:13;13.70;92.50
46816;DHT22;32787;53.316;8.670;2023-08-08T07:47:39;13.80;92.50
46816;DHT22;32787;53.316;8.670;2023-08-08T07:50:05;13.80;92.20
46816;DHT22;32787;53.316;8.670;2023-08-08T07:52:34;13.70;92.40
46816;DHT22;32787;53.316;8.670;2023-08-08T07:55:00;13.80;92.60
46816;DHT22;32787;53.316;8.670;2023-08-08T07:57:27;13.90;92.80
46816;DHT22;32787;53.316;8.670;2023-08-08T07:59:52;14.10;92.60
46816;DHT22;32787;53.316;8.670;2023-08-08T08:02:18;14.10;92.40
46816;DHT22;32787;53.316;8.670;2023-08-08T08:04:43;14.20;92.30
46816;DHT22;32787;53.316;8.670;2023-08-08T08:07:09;14.50;92.40
46816;DHT22;32787;53.316;8.670;2023-08-08T08:09:35;14.50;91.80
46816;DHT22;32787;53.316;8.670;2023-08-08T08:12:00;14.60;91.80
46816;DHT22;32787;53.316;8.670;2023-08-08T08:14:26;14.50;90.70
46816;DHT22;32787;53.316;8.670;2023-08-08T08:16:52;14.60;90.70
46816;DHT22;32787;53.316;8.670;2023-08-08T08:19:17;14.50;90.40
46816;DHT22;32787;53.316;8.670;2023-08-08T08:21:43;14.40;90.30
46816;DHT22;32787;53.316;8.670;2023-08-08T08:24:09;14.40;90.60
46816;DHT22;32787;53.316;8.670;2023-08-08T08:26:34;14.30;91.30
46816;DHT22;32787;53.316;8.670;2023-08-08T08:29:00;14.40;91.20
46816;DHT22;32787;53.316;8.670;2023-08-08T08:31:25;14.50;91.60
46816;DHT22;32787;53.316;8.670;2023-08-08T08:33:52;14.70;91.00
46816;DHT22;32787;53.316;8.670;2023-08-08T08:36:19;14.80;90.50
46816;DHT22;32787;53.316;8.670;2023-08-08T08:38:46;14.80;90.70
46816;DHT22;32787;53.316;8.670;2023-08-08T08:41:16;14.80;91.00
46816;DHT22;32787;53.316;8.670;2023-08-08T08:43:42;14.90;91.40
46816;DHT22;32787;53.316;8.670;2023-08-08T08:46:10;14.90;90.70
46816;DHT22;32787;53.316;8.670;2023-08-08T08:48:36;14.90;90.50
46816;DHT22;32787;53.316;8.670;2023-08-08T08:51:02;14.80;89.70
46816;DHT22;32787;53.316;8.670;2023-08-08T08:53:28;14.80;90.40
46816;DHT22;32787;53.316;8.670;2023-08-08T08:55:54;14.90;91.10
46816;DHT22;32787;53.316;8.670;2023-08-08T08:58:22;14.60;91.70
46816;DHT22;32787;53.316;8.670;2023-08-08T09:00:49;13.80;92.20
46816;DHT22;32787;53.316;8.670;2023-08-08T09:03:16;13.20;93.30
46816;DHT22;32787;53.316;8.670;2023-08-08T09:05:42;12.90;94.00
46816;DHT22;32787;53.316;8.670;2023-08-08T09:08:10;12.70;94.20
46816;DHT22;32787;53.316;8.670;2023-08-08T09:10:37;12.50;94.30
46816;DHT22;32787;53.316;8.670;2023-08-08T09:13:03;12.40;94.50
46816;DHT22;32787;53.316;8.670;2023-08-08T09:15:32;12.40;94.70
46816;DHT22;32787;53.316;8.670;2023-08-08T09:17:58;12.40;94.80
46816;DHT22;32787;53.316;8.670;2023-08-08T09:20:26;12.30;95.10
46816;DHT22;32787;53.316;8.670;2023-08-08T09:22:53;12.50;95.30
46816;DHT22;32787;53.316;8.670;2023-08-08T09:25:19;12.70;95.50
46816;DHT22;32787;53.316;8.670;2023-08-08T09:27:44;12.80;95.50
46816;DHT22;32787;53.316;8.670;2023-08-08T09:30:11;12.90;95.60
46816;DHT22;32787;53.316;8.670;2023-08-08T09:32:39;13.00;95.70
46816;DHT22;32787;53.316;8.670;2023-08-08T09:35:05;13.10;95.60
46816;DHT22;32787;53.316;8.670;2023-08-08T09:37:35;13.10;95.80
46816;DHT22;32787;53.316;8.670;2023-08-08T09:40:02;13.20;95.70
46816;DHT22;32787;53.316;8.670;2023-08-08T09:42:29;13.20;95.80
46816;DHT22;32787;53.316;8.670;2023-08-08T09:44:58;13.30;95.90
46816;DHT22;32787;53.316;8.670;2023-08-08T09:47:24;13.50;95.90
46816;DHT22;32787;53.316;8.670;2023-08-08T09:49:50;13.80;95.90
46816;DHT22;32787;53.316;8.670;2023-08-08T09:52:17;13.80;96.00
46816;DHT22;32787;53.316;8.670;2023-08-08T09:54:42;14.10;96.10
46816;DHT22;32787;53.316;8.670;2023-08-08T09:57:09;14.20;96.00
46816;DHT22;32787;53.316;8.670;2023-08-08T09:59:35;14.10;96.00
46816;DHT22;32787;53.316;8.670;2023-08-08T10:02:04;14.00;95.80
46816;DHT22;32787;53.316;8.670;2023-08-08T10:04:30;14.20;95.80
46816;DHT22;32787;53.316;8.670;2023-08-08T10:06:56;14.20;95.60
46816;DHT22;32787;53.316;8.670;2023-08-08T10:09:22;14.20;95.40
46816;DHT22;32787;53.316;8.670;2023-08-08T10:11:49;14.30;95.20
46816;DHT22;32787;53.316;8.670;2023-08-08T10:14:15;14.40;95.10
46816;DHT22;32787;53.316;8.670;2023-08-08T10:16:42;14.50;94.80
46816;DHT22;32787;53.316;8.670;2023-08-08T10:19:09;14.60;94.60
46816;DHT22;32787;53.316;8.670;2023-08-08T10:21:37;14.60;94.50
46816;DHT22;32787;53.316;8.670;2023-08-08T10:24:05;14.80;94.70
46816;DHT22;32787;53.316;8.670;2023-08-08T10:26:32;14.70;94.00
46816;DHT22;32787;53.316;8.670;2023-08-08T10:28:59;14.80;93.60
46816;DHT22;32787;53.316;8.670;2023-08-08T10:31:26;14.90;93.50
46816;DHT22;32787;53.316;8.670;2023-08-08T10:34:03;15.00;93.40
46816;DHT22;32787;53.316;8.670;2023-08-08T10:36:49;15.30;93.60
46816;DHT22;32787;53.316;8.670;2023-08-08T10:39:17;15.30;92.80
46816;DHT22;32787;53.316;8.670;2023-08-08T10:41:48;15.60;93.30
46816;DHT22;32787;53.316;8.670;2023-08-08T10:44:20;15.90;93.00
46816;DHT22;32787;53.316;8.670;2023-08-08T10:46:46;15.80;91.90
46816;DHT22;32787;53.316;8.670;2023-08-08T10:49:12;15.70;91.70
46816;DHT22;32787;53.316;8.670;2023-08-08T10:51:42;15.70;91.20
46816;DHT22;32787;53.316;8.670;2023-08-08T10:54:14;15.80;91.80
46816;DHT22;32787;53.316;8.670;2023-08-08T10:56:40;16.10;91.90
46816;DHT22;32787;53.316;8.670;2023-08-08T10:59:20;16.10;89.30
46816;DHT22;32787;53.316;8.670;2023-08-08T11:01:47;15.90;88.10
46816;DHT22;32787;53.316;8.670;2023-08-08T11:04:13;15.80;88.40
46816;DHT22;32787;53.316;8.670;2023-08-08T11:06:39;15.80;88.70
46816;DHT22;32787;53.316;8.670;2023-08-08T11:09:06;15.80;87.60
46816;DHT22;32787;53.316;8.670;2023-08-08T11:11:39;16.00;86.00
46816;DHT22;32787;53.316;8.670;2023-08-08T11:14:13;16.10;83.50
46816;DHT22;32787;53.316;8.670;2023-08-08T11:16:39;16.10;82.10
46816;DHT22;32787;53.316;8.670;2023-08-08T11:19:05;16.20;83.80
46816;DHT22;32787;53.316;8.670;2023-08-08T11:21:35;16.10;81.60
46816;DHT22;32787;53.316;8.670;2023-08-08T11:24:05;16.20;83.90
46816;DHT22;32787;53.316;8.670;2023-08-08T11:26:32;16.20;84.50
46816;DHT22;32787;53.316;8.670;2023-08-08T11:29:01;16.60;85.30
46816;DHT22;32787;53.316;8.670;2023-08-08T11:31:28;16.90;85.40
46816;DHT22;32787;53.316;8.670;2023-08-08T11:33:54;16.80;82.30
46816;DHT22;32787;53.316;8.670;2023-08-08T11:36:21;17.00;81.50
46816;DHT22;32787;53.316;8.670;2023-08-08T11:38:48;17.10;82.50
46816;DHT22;32787;53.316;8.670;2023-08-08T11:41:16;17.20;84.00
46816;DHT22;32787;53.316;8.670;2023-08-08T11:43:44;17.50;81.30
46816;DHT22;32787;53.316;8.670;2023-08-08T11:46:14;18.00;80.20
46816;DHT22;32787;53.316;8.670;2023-08-08T11:48:40;18.60;76.40
46816;DHT22;32787;53.316;8.670;2023-08-08T11:51:07;19.50;76.60
46816;DHT22;32787;53.316;8.670;2023-08-08T11:53:35;19.90;75.60
46816;DHT22;32787;53.316;8.670;2023-08-08T11:56:04;19.30;73.10
46816;DHT22;32787;53.316;8.670;2023-08-08T11:58:30;18.90;74.50
46816;DHT22;32787;53.316;8.670;2023-08-08T12:00:56;18.50;76.80
46816;DHT22;32787;53.316;8.670;2023-08-08T12:03:24;18.50;75.90
46816;DHT22;32787;53.316;8.670;2023-08-08T12:05:51;18.70;75.40
46816;DHT22;32787;53.316;8.670;2023-08-08T12:08:20;19.70;73.70
46816;DHT22;32787;53.316;8.670;2023-08-08T12:10:50;20.00;72.70
46816;DHT22;32787;53.316;8.670;2023-08-08T12:13:22;19.70;73.30
46816;DHT22;32787;53.316;8.670;2023-08-08T12:15:49;19.00;73.10
46816;DHT22;32787;53.316;8.670;2023-08-08T12:18:18;18.80;76.00
46816;DHT22;32787;53.316;8.670;2023-08-08T12:20:44;18.80;75.40
46816;DHT22;32787;53.316;8.670;2023-08-08T12:23:11;18.50;76.10
46816;DHT22;32787;53.316;8.670;2023-08-08T12:25:37;18.60;76.80
46816;DHT22;32787;53.316;8.670;2023-08-08T12:28:03;18.60;73.60
46816;DHT22;32787;53.316;8.670;2023-08-08T12:30:28;18.70;72.50
46816;DHT22;32787;53.316;8.670;2023-08-08T12:32:54;18.80;73.30
46816;DHT22;32787;53.316;8.670;2023-08-08T12:35:20;18.80;75.40
46816;DHT22;32787;53.316;8.670;2023-08-08T12:37:46;18.90;70.80
46816;DHT22;32787;53.316;8.670;2023-08-08T12:40:12;18.90;69.50
46816;DHT22;32787;53.316;8.670;2023-08-08T12:42:38;18.40;64.40
46816;DHT22;32787;53.316;8.670;2023-08-08T12:45:05;18.10;65.50
46816;DHT22;32787;53.316;8.670;2023-08-08T12:47:31;17.90;65.20
46816;DHT22;32787;53.316;8.670;2023-08-08T12:49:57;17.80;65.60
46816;DHT22;32787;53.316;8.670;2023-08-08T12:52:23;17.70;66.10
46816;DHT22;32787;53.316;8.670;2023-08-08T12:54:49;19.00;62.60
46816;DHT22;32787;53.316;8.670;2023-08-08T12:57:14;20.20;59.10
46816;DHT22;32787;53.316;8.670;2023-08-08T12:59:40;20.60;56.70
46816;DHT22;32787;53.316;8.670;2023-08-08T13:02:06;20.60;55.30
46816;DHT22;32787;53.316;8.670;2023-08-08T13:04:32;21.80;55.40
46816;DHT22;32787;53.316;8.670;2023-08-08T13:06:57;22.50;51.80
46816;DHT22;32787;53.316;8.670;2023-08-08T13:09:24;23.20;49.90
46816;DHT22;32787;53.316;8.670;2023-08-08T13:11:49;23.10;50.80
46816;DHT22;32787;53.316;8.670;2023-08-08T13:14:15;23.40;48.70
46816;DHT22;32787;53.316;8.670;2023-08-08T13:16:41;23.20;49.80
46816;DHT22;32787;53.316;8.670;2023-08-08T13:19:07;23.40;49.80
46816;DHT22;32787;53.316;8.670;2023-08-08T13:21:33;23.60;46.90
46816;DHT22;32787;53.316;8.670;2023-08-08T13:23:58;24.00;48.60
46816;DHT22;32787;53.316;8.670;2023-08-08T13:26:24;23.30;47.40
46816;DHT22;32787;53.316;8.670;2023-08-08T13:28:50;23.80;48.70
46816;DHT22;32787;53.316;8.670;2023-08-08T13:31:16;24.00;42.50
46816;DHT22;32787;53.316;8.670;2023-08-08T13:33:41;24.60;46.50
46816;DHT22;32787;53.316;8.670;2023-08-08T13:36:07;24.40;43.90
46816;DHT22;32787;53.316;8.670;2023-08-08T13:38:33;23.40;48.00
46816;DHT22;32787;53.316;8.670;2023-08-08T13:40:58;23.40;48.10
46816;DHT22;32787;53.316;8.670;2023-08-08T13:43:26;23.20;48.40
46816;DHT22;32787;53.316;8.670;2023-08-08T13:45:52;23.90;51.30
46816;DHT22;32787;53.316;8.670;2023-08-08T13:48:17;23.80;50.30
46816;DHT22;32787;53.316;8.670;2023-08-08T13:50:43;23.10;50.50
46816;DHT22;32787;53.316;8.670;2023-08-08T13:53:09;23.30;48.70
46816;DHT22;32787;53.316;8.670;2023-08-08T13:55:35;23.40;49.90
46816;DHT22;32787;53.316;8.670;2023-08-08T13:58:05;24.20;46.60
46816;DHT22;32787;53.316;8.670;2023-08-08T14:00:32;24.70;44.20
46816;DHT22;32787;53.316;8.670;2023-08-08T14:02:58;24.30;44.70
46816;DHT22;32787;53.316;8.670;2023-08-08T14:05:24;23.80;46.40
46816;DHT22;32787;53.316;8.670;2023-08-08T14:07:50;24.40;44.40
46816;DHT22;32787;53.316;8.670;2023-08-08T14:10:16;23.70;47.80
46816;DHT22;32787;53.316;8.670;2023-08-08T14:12:41;23.90;45.90
46816;DHT22;32787;53.316;8.670;2023-08-08T14:15:07;23.80;47.60
46816;DHT22;32787;53.316;8.670;2023-08-08T14:17:34;23.10;46.10
46816;DHT22;32787;53.316;8.670;2023-08-08T14:20:00;22.10;49.20
46816;DHT22;32787;53.316;8.670;2023-08-08T14:22:26;22.50;47.90
46816;DHT22;32787;53.316;8.670;2023-08-08T14:24:51;22.80;49.00
46816;DHT22;32787;53.316;8.670;2023-08-08T14:27:17;23.60;47.50
46816;DHT22;32787;53.316;8.670;2023-08-08T14:29:43;22.90;49.60
46816;DHT22;32787;53.316;8.670;2023-08-08T14:32:09;21.80;52.30
46816;DHT22;32787;53.316;8.670;2023-08-08T14:34:36;21.70;51.20
46816;DHT22;32787;53.316;8.670;2023-08-08T14:37:03;21.90;49.90
46816;DHT22;32787;53.316;8.670;2023-08-08T14:39:29;23.00;47.60
46816;DHT22;32787;53.316;8.670;2023-08-08T14:41:55;23.40;48.90
46816;DHT22;32787;53.316;8.670;2023-08-08T14:44:21;24.60;45.30
46816;DHT22;32787;53.316;8.670;2023-08-08T14:46:47;24.50;47.20
46816;DHT22;32787;53.316;8.670;2023-08-08T14:49:13;24.10;46.00
46816;DHT22;32787;53.316;8.670;2023-08-08T14:51:39;23.50;45.80
46816;DHT22;32787;53.316;8.670;2023-08-08T14:54:05;23.50;46.80
46816;DHT22;32787;53.316;8.670;2023-08-08T14:56:30;23.90;44.70
46816;DHT22;32787;53.316;8.670;2023-08-08T14:58:56;23.90;45.80
46816;DHT22;32787;53.316;8.670;2023-08-08T15:01:22;23.80;44.10
46816;DHT22;32787;53.316;8.670;2023-08-08T15:03:48;24.10;45.40
46816;DHT22;32787;53.316;8.670;2023-08-08T15:06:13;24.40;46.30
46816;DHT22;32787;53.316;8.670;2023-08-08T15:08:39;24.20;43.00
46816;DHT22;32787;53.316;8.670;2023-08-08T15:11:04;23.00;44.80
46816;DHT22;32787;53.316;8.670;2023-08-08T15:13:31;23.20;45.60
46816;DHT22;32787;53.316;8.670;2023-08-08T15:15:56;23.70;45.70
46816;DHT22;32787;53.316;8.670;2023-08-08T15:18:22;23.70;46.80
46816;DHT22;32787;53.316;8.670;2023-08-08T15:20:48;24.60;44.70
46816;DHT22;32787;53.316;8.670;2023-08-08T15:23:13;24.50;43.60
46816;DHT22;32787;53.316;8.670;2023-08-08T15:25:41;23.70;44.80